Time,TemperatureF,DewpointF,PressureIn,WindDirection,WindDirectionDegrees,WindSpeedMPH,WindSpeedGustMPH,Humidity,HourlyPrecipIn,Conditions,Clouds,dailyrainin,SoftwareType,DateUTC
2017-10-22 00:05:00,59.3,49.5,30.16,SE,134,0.0,0.0,70,0.00,,,0.00,Wunderground v.1.15,2017-10-22 04:05:00,
2017-10-22 00:10:00,58.6,49.2,30.16,SE,134,0.0,0.0,71,0.00,,,0.00,Wunderground v.1.15,2017-10-22 04:10:00,
2017-10-22 00:15:00,58.9,49.5,30.16,SE,132,0.0,0.0,71,0.00,,,0.00,Wunderground v.1.15,2017-10-22 04:15:00,
2017-10-22 00:20:00,59.4,49.6,30.16,SE,132,0.0,0.0,70,0.00,,,0.00,Wunderground v.1.15,2017-10-22 04:20:00,
2017-10-22 00:30:00,59.9,49.7,30.16,SE,136,0.0,0.0,69,0.00,,,0.00,Wunderground v.1.15,2017-10-22 04:30:00,
2017-10-22 00:40:00,59.6,49.4,30.16,SE,132,0.0,0.0,69,0.00,,,0.00,Wunderground v.1.15,2017-10-22 04:40:00,
2017-10-22 00:50:00,59.5,49.7,30.16,SE,132,0.0,0.0,70,0.00,,,0.00,Wunderground v.1.15,2017-10-22 04:50:00,
2017-10-22 01:00:00,59.1,49.3,30.15,SE,132,0.0,0.0,70,0.00,,,0.00,Wunderground v.1.15,2017-10-22 05:00:00,
2017-10-22 01:10:00,58.6,49.2,30.15,SE,127,0.0,0.0,71,0.00,,,0.00,Wunderground v.1.15,2017-10-22 05:10:00,
2017-10-22 01:20:00,58.9,49.5,30.15,SE,125,0.0,0.0,71,0.00,,,0.00,Wunderground v.1.15,2017-10-22 05:20:00,
2017-10-22 01:30:00,58.2,49.6,30.15,SE,126,0.0,0.0,73,0.00,,,0.00,Wunderground v.1.15,2017-10-22 05:30:00,
2017-10-22 01:40:00,57.0,49.2,30.15,SE,125,0.0,0.0,75,0.00,,,0.00,Wunderground v.1.15,2017-10-22 05:40:00,
2017-10-22 01:45:00,56.4,48.6,30.15,SE,125,0.0,0.0,75,0.00,,,0.00,Wunderground v.1.15,2017-10-22 05:45:00,
2017-10-22 01:55:00,55.5,48.8,30.15,SE,132,0.0,1.0,78,0.00,,,0.00,Wunderground v.1.15,2017-10-22 05:55:00,
2017-10-22 02:05:00,55.7,48.9,30.16,SSE,151,0.0,0.0,78,0.00,,,0.00,Wunderground v.1.15,2017-10-22 06:05:00,
2017-10-22 02:15:00,55.8,49.4,30.16,ESE,117,0.0,0.0,79,0.00,,,0.00,Wunderground v.1.15,2017-10-22 06:15:00,
2017-10-22 02:25:00,54.4,48.7,30.16,ESE,117,0.0,0.0,81,0.00,,,0.00,Wunderground v.1.15,2017-10-22 06:25:00,
2017-10-22 02:30:00,53.8,48.4,30.16,ESE,117,0.0,0.0,82,0.00,,,0.00,Wunderground v.1.15,2017-10-22 06:30:00,
2017-10-22 02:40:00,53.1,48.4,30.16,ESE,117,0.0,0.0,84,0.00,,,0.00,Wunderground v.1.15,2017-10-22 06:40:00,
2017-10-22 02:50:00,52.7,48.3,30.16,ESE,117,0.0,0.0,85,0.00,,,0.00,Wunderground v.1.15,2017-10-22 06:50:00,
2017-10-22 03:00:00,52.4,48.0,30.16,ESE,117,0.0,0.0,85,0.00,,,0.00,Wunderground v.1.15,2017-10-22 07:00:00,
2017-10-22 03:05:00,52.2,48.1,30.15,ESE,117,0.0,0.0,86,0.00,,,0.00,Wunderground v.1.15,2017-10-22 07:05:00,
2017-10-22 03:15:00,51.9,48.2,30.15,ESE,117,0.0,0.0,87,0.00,,,0.00,Wunderground v.1.15,2017-10-22 07:15:00,
2017-10-22 03:25:00,51.7,48.3,30.15,ESE,117,0.0,0.0,88,0.00,,,0.00,Wunderground v.1.15,2017-10-22 07:25:00,
2017-10-22 03:35:00,51.9,48.5,30.15,ESE,117,0.0,0.0,88,0.00,,,0.00,Wunderground v.1.15,2017-10-22 07:35:00,
2017-10-22 03:45:00,52.6,48.5,30.15,SSE,160,0.0,0.0,86,0.00,,,0.00,Wunderground v.1.15,2017-10-22 07:45:00,
2017-10-22 03:55:00,52.9,48.8,30.15,SE,136,0.0,0.0,86,0.00,,,0.00,Wunderground v.1.15,2017-10-22 07:55:00,
2017-10-22 04:05:00,54.3,48.9,30.15,SE,134,0.0,0.0,82,0.00,,,0.00,Wunderground v.1.15,2017-10-22 08:05:00,
2017-10-22 04:15:00,56.1,49.7,30.15,SE,133,1.0,1.0,79,0.00,,,0.00,Wunderground v.1.15,2017-10-22 08:15:00,
2017-10-22 04:20:00,56.5,49.4,30.15,SE,141,0.0,0.0,77,0.00,,,0.00,Wunderground v.1.15,2017-10-22 08:20:00,
2017-10-22 04:30:00,56.6,49.5,30.14,ESE,120,0.0,0.0,77,0.00,,,0.00,Wunderground v.1.15,2017-10-22 08:30:00,
2017-10-22 04:40:00,55.7,48.2,30.14,ESE,121,0.0,0.0,76,0.00,,,0.00,Wunderground v.1.15,2017-10-22 08:40:00,
2017-10-22 04:45:00,-999.9,-99.9,30.14,North,32767,-999.9,0.0,255,-99.99,,,0.00,Wunderground v.1.15,2017-10-22 08:45:00,
2017-10-22 04:55:00,-999.9,-99.9,30.14,North,32767,-999.9,0.0,255,-99.99,,,0.00,Wunderground v.1.15,2017-10-22 08:55:00,
2017-10-22 05:00:00,-999.9,-99.9,30.14,North,32767,-999.9,0.0,255,-99.99,,,0.00,Wunderground v.1.15,2017-10-22 09:00:00,
2017-10-22 05:05:00,-999.9,-99.9,30.14,North,32767,-999.9,0.0,255,-99.99,,,0.00,Wunderground v.1.15,2017-10-22 09:05:00,
2017-10-22 05:10:00,-999.9,-99.9,30.14,North,32767,-999.9,0.0,255,-99.99,,,0.00,Wunderground v.1.15,2017-10-22 09:10:00,
2017-10-22 05:15:00,-999.9,-99.9,30.14,North,32767,-999.9,0.0,255,-99.99,,,0.00,Wunderground v.1.15,2017-10-22 09:15:00,
2017-10-22 05:25:00,-999.9,-99.9,30.14,North,32767,-999.9,0.0,255,-99.99,,,0.00,Wunderground v.1.15,2017-10-22 09:25:00,
2017-10-22 05:35:00,-999.9,-99.9,30.13,North,32767,-999.9,0.0,255,-99.99,,,0.00,Wunderground v.1.15,2017-10-22 09:35:00,
2017-10-22 05:40:00,-999.9,-99.9,30.13,North,32767,-999.9,0.0,255,-99.99,,,0.00,Wunderground v.1.15,2017-10-22 09:40:00,
2017-10-22 05:50:00,-999.9,-99.9,30.13,North,32767,-999.9,0.0,255,-99.99,,,0.00,Wunderground v.1.15,2017-10-22 09:50:00,
2017-10-22 06:00:00,-999.9,-99.9,30.14,North,32767,-999.9,0.0,255,-99.99,,,0.00,Wunderground v.1.15,2017-10-22 10:00:00,